createdAt,value
2019-05-03T00:00:59.570Z,21.58
2019-05-03T00:01:59.581Z,21.54
2019-05-03T00:03:01.605Z,21.55
2019-05-03T00:03:59.522Z,21.58
2019-05-03T00:04:59.489Z,21.57
2019-05-03T00:06:01.722Z,21.60
2019-05-03T00:06:59.489Z,21.52
2019-05-03T00:07:59.509Z,21.55
2019-05-03T00:09:01.503Z,21.57
2019-05-03T00:09:59.429Z,21.60
2019-05-03T00:10:59.436Z,21.57
2019-05-03T00:12:01.421Z,21.58
2019-05-03T00:13:01.882Z,21.61
2019-05-03T00:13:59.465Z,21.55
2019-05-03T00:14:59.372Z,21.62
2019-05-03T00:15:59.450Z,21.55
2019-05-03T00:16:59.328Z,21.55
2019-05-03T00:17:59.759Z,21.55
2019-05-03T00:19:01.003Z,21.55
2019-05-03T00:19:59.272Z,21.62
2019-05-03T00:20:59.329Z,21.58
2019-05-03T00:21:59.228Z,21.60
2019-05-03T00:22:59.336Z,21.58
2019-05-03T00:23:59.450Z,21.57
2019-05-03T00:25:05.852Z,21.58
2019-05-03T00:26:02.492Z,21.60
2019-05-03T00:26:59.175Z,21.58
2019-05-03T00:27:59.237Z,21.58
2019-05-03T00:28:59.292Z,21.57
2019-05-03T00:29:59.552Z,21.58
2019-05-03T00:30:59.229Z,21.57
2019-05-03T00:31:59.004Z,21.54
2019-05-03T00:32:59.178Z,21.57
2019-05-03T00:33:59.177Z,21.57
2019-05-03T00:34:59.144Z,21.58
2019-05-03T00:35:59.455Z,21.55
2019-05-03T00:36:59.105Z,21.55
2019-05-03T00:37:59.159Z,21.60
2019-05-03T00:38:59.179Z,21.57
2019-05-03T00:39:59.126Z,21.57
2019-05-03T00:40:59.209Z,21.48
2019-05-03T00:41:58.917Z,21.55
2019-05-03T00:42:59.086Z,21.52
2019-05-03T00:44:02.083Z,21.57
2019-05-03T00:44:59.023Z,21.51
2019-05-03T00:45:59.095Z,21.60
2019-05-03T00:47:02.099Z,21.48
2019-05-03T00:47:59.565Z,21.46
2019-05-03T00:48:59.060Z,21.55
2019-05-03T00:49:59.632Z,21.52
2019-05-03T00:50:59.205Z,21.52
2019-05-03T00:51:59.771Z,21.48
2019-05-03T00:52:59.678Z,21.50
2019-05-03T00:53:59.164Z,21.55
2019-05-03T00:54:59.144Z,21.48
2019-05-03T00:56:01.584Z,21.51
2019-05-03T00:57:00.274Z,21.52
2019-05-03T00:57:58.913Z,21.52
2019-05-03T00:59:02.057Z,21.48
2019-05-03T00:59:59.338Z,21.50
2019-05-03T01:00:58.889Z,21.48
2019-05-03T01:01:58.913Z,21.55
2019-05-03T01:02:58.881Z,21.54
2019-05-03T01:04:01.663Z,21.50
2019-05-03T01:04:59.483Z,21.46
2019-05-03T01:06:02.133Z,21.51
2019-05-03T01:06:58.851Z,21.45
2019-05-03T01:07:58.818Z,21.48
2019-05-03T01:08:58.809Z,21.58
2019-05-03T01:09:58.751Z,21.51
2019-05-03T01:10:58.769Z,21.55
2019-05-03T01:11:58.982Z,21.51
2019-05-03T01:12:58.816Z,21.50
2019-05-03T01:13:58.682Z,21.48
2019-05-03T01:14:59.445Z,21.54
2019-05-03T01:15:58.769Z,21.45
2019-05-03T01:16:58.759Z,21.54
2019-05-03T01:17:58.996Z,21.54
2019-05-03T01:18:58.662Z,21.52
2019-05-03T01:19:58.670Z,21.48
2019-05-03T01:20:58.581Z,21.46
2019-05-03T01:21:58.650Z,21.50
2019-05-03T01:22:58.599Z,21.43
2019-05-03T01:24:01.559Z,21.46
2019-05-03T01:24:58.598Z,21.48
2019-05-03T01:25:58.576Z,21.50
2019-05-03T01:26:59.271Z,21.60
2019-05-03T01:27:58.598Z,21.51
2019-05-03T01:28:58.574Z,21.55
2019-05-03T01:29:58.806Z,21.54
2019-05-03T01:30:59.009Z,21.58
2019-05-03T01:31:58.597Z,21.51
2019-05-03T01:32:58.492Z,21.52
2019-05-03T01:33:59.475Z,21.48
2019-05-03T01:34:58.473Z,21.51
2019-05-03T01:35:59.117Z,21.51
2019-05-03T01:36:58.533Z,21.50
2019-05-03T01:37:58.492Z,21.52
2019-05-03T01:38:58.585Z,21.55
2019-05-03T01:39:59.143Z,21.51
2019-05-03T01:41:01.734Z,21.42
2019-05-03T01:41:58.737Z,21.54
2019-05-03T01:42:58.427Z,21.46
2019-05-03T01:43:58.363Z,21.50
2019-05-03T01:44:58.959Z,21.43
2019-05-03T01:45:58.398Z,21.52
2019-05-03T01:46:58.369Z,21.42
2019-05-03T01:47:58.899Z,21.52
2019-05-03T01:48:58.357Z,21.51
2019-05-03T01:49:58.350Z,21.42
2019-05-03T01:50:58.303Z,21.45
2019-05-03T01:51:58.349Z,21.48
2019-05-03T01:52:58.280Z,21.50
2019-05-03T01:53:58.971Z,21.39
2019-05-03T01:54:59.217Z,21.45
2019-05-03T01:55:59.145Z,21.50
2019-05-03T01:56:59.202Z,21.48
2019-05-03T01:57:58.228Z,21.48
2019-05-03T01:58:58.283Z,21.45
2019-05-03T01:59:58.349Z,21.52
2019-05-03T02:00:59.055Z,21.50
2019-05-03T02:01:58.223Z,21.46
2019-05-03T02:02:58.263Z,21.46
2019-05-03T02:03:58.198Z,21.50
2019-05-03T02:04:58.957Z,21.46
2019-05-03T02:05:58.390Z,21.45
2019-05-03T02:06:58.128Z,21.43
2019-05-03T02:07:58.098Z,21.50
2019-05-03T02:08:58.151Z,21.45
2019-05-03T02:09:58.576Z,21.50
2019-05-03T02:10:58.183Z,21.45
2019-05-03T02:11:58.151Z,21.46
2019-05-03T02:12:58.055Z,21.39
2019-05-03T02:13:58.095Z,21.43
2019-05-03T02:14:58.404Z,21.43
2019-05-03T02:15:58.693Z,21.37
2019-05-03T02:16:58.000Z,21.48
2019-05-03T02:17:58.295Z,21.45
2019-05-03T02:18:58.066Z,21.37
2019-05-03T02:19:57.977Z,21.46
2019-05-03T02:20:57.982Z,21.48
2019-05-03T02:21:58.693Z,21.50
2019-05-03T02:22:57.984Z,21.46
2019-05-03T02:23:58.278Z,21.37
2019-05-03T02:24:57.931Z,21.48
2019-05-03T02:25:59.259Z,21.48
2019-05-03T02:26:57.976Z,21.50
2019-05-03T02:27:58.228Z,21.43
2019-05-03T02:28:57.971Z,21.43
2019-05-03T02:29:58.257Z,21.35
2019-05-03T02:30:58.264Z,21.40
2019-05-03T02:31:58.418Z,21.48
2019-05-03T02:32:57.844Z,21.37
2019-05-03T02:33:58.165Z,21.40
2019-05-03T02:34:57.869Z,21.46
2019-05-03T02:35:58.044Z,21.37
2019-05-03T02:36:57.845Z,21.45
2019-05-03T02:37:57.836Z,21.48
2019-05-03T02:38:57.803Z,21.46
2019-05-03T02:39:58.059Z,21.45
2019-05-03T02:40:57.747Z,21.42
2019-05-03T02:42:06.241Z,21.39
2019-05-03T02:42:58.803Z,21.40
2019-05-03T02:43:58.046Z,21.43
2019-05-03T02:44:58.333Z,21.48
2019-05-03T02:45:57.745Z,21.42
2019-05-03T02:46:57.731Z,21.48
2019-05-03T02:47:57.897Z,21.45
2019-05-03T02:48:57.682Z,21.36
2019-05-03T02:49:57.672Z,21.43
2019-05-03T02:50:57.667Z,21.37
2019-05-03T02:51:57.627Z,21.36
2019-05-03T02:52:57.651Z,21.40
2019-05-03T02:53:57.856Z,21.37
2019-05-03T02:54:57.621Z,21.45
2019-05-03T02:56:12.955Z,21.39
2019-05-03T02:56:58.578Z,21.42
2019-05-03T02:57:57.602Z,21.36
2019-05-03T02:58:57.468Z,21.35
2019-05-03T02:59:57.760Z,21.36
2019-05-03T03:00:57.558Z,21.35
2019-05-03T03:01:57.571Z,21.43
2019-05-03T03:02:58.367Z,21.40
2019-05-03T03:03:57.519Z,21.37
2019-05-03T03:04:57.436Z,21.40
2019-05-03T03:05:57.966Z,21.35
2019-05-03T03:06:57.518Z,21.36
2019-05-03T03:07:57.502Z,21.43
2019-05-03T03:08:58.433Z,21.48
2019-05-03T03:09:57.469Z,21.40
2019-05-03T03:10:57.435Z,21.42
2019-05-03T03:11:57.794Z,21.35
2019-05-03T03:12:57.447Z,21.40
2019-05-03T03:13:57.438Z,21.42
2019-05-03T03:14:57.391Z,21.37
2019-05-03T03:15:57.354Z,21.46
2019-05-03T03:16:57.476Z,21.35
2019-05-03T03:17:57.784Z,21.37
2019-05-03T03:18:57.357Z,21.37
2019-05-03T03:19:57.526Z,21.37
2019-05-03T03:20:57.342Z,21.37
2019-05-03T03:21:57.339Z,21.40
2019-05-03T03:22:57.290Z,21.37
2019-05-03T03:23:57.504Z,21.42
2019-05-03T03:24:57.266Z,21.37
2019-05-03T03:25:57.200Z,21.43
2019-05-03T03:26:58.161Z,21.36
2019-05-03T03:27:57.236Z,21.36
2019-05-03T03:28:57.516Z,21.37
2019-05-03T03:29:57.458Z,21.37
2019-05-03T03:30:58.522Z,21.35
2019-05-03T03:31:58.361Z,21.33
2019-05-03T03:32:57.948Z,21.40
2019-05-03T03:33:59.178Z,21.35
2019-05-03T03:35:03.008Z,21.35
2019-05-03T03:36:28.549Z,21.39
2019-05-03T03:37:04.690Z,21.35
2019-05-03T03:37:58.158Z,21.37
2019-05-03T03:38:57.131Z,21.35
2019-05-03T03:39:58.528Z,21.40
2019-05-03T03:40:58.950Z,21.36
2019-05-03T03:41:57.255Z,21.43
2019-05-03T03:42:57.131Z,21.37
2019-05-03T03:43:57.053Z,21.42
2019-05-03T03:44:57.910Z,21.35
2019-05-03T03:45:56.969Z,21.35
2019-05-03T03:46:56.993Z,21.35
2019-05-03T03:47:58.252Z,21.36
2019-05-03T03:48:57.034Z,21.33
2019-05-03T03:49:56.986Z,21.42
2019-05-03T03:50:57.029Z,21.39
2019-05-03T03:51:57.055Z,21.37
2019-05-03T03:52:56.943Z,21.39
2019-05-03T03:53:57.375Z,21.37
2019-05-03T03:54:56.908Z,21.39
2019-05-03T03:55:56.875Z,21.39
2019-05-03T03:57:03.843Z,21.37
2019-05-03T03:57:57.923Z,21.29
2019-05-03T03:58:56.982Z,21.33
2019-05-03T03:59:57.352Z,21.32
2019-05-03T04:00:56.949Z,21.33
2019-05-03T04:01:56.882Z,21.39
2019-05-03T04:02:56.873Z,21.40
2019-05-03T04:03:56.909Z,21.35
2019-05-03T04:04:56.847Z,21.39
2019-05-03T04:05:57.983Z,21.39
2019-05-03T04:07:01.058Z,21.33
2019-05-03T04:07:56.812Z,21.39
2019-05-03T04:08:56.789Z,21.35
2019-05-03T04:09:56.791Z,21.35
2019-05-03T04:10:56.747Z,21.35
2019-05-03T04:11:57.170Z,21.39
2019-05-03T04:12:56.764Z,21.30
2019-05-03T04:13:56.724Z,21.30
2019-05-03T04:14:57.610Z,21.36
2019-05-03T04:15:56.687Z,21.39
2019-05-03T04:16:56.770Z,21.40
2019-05-03T04:17:56.963Z,21.39
2019-05-03T04:18:56.691Z,21.39
2019-05-03T04:19:56.779Z,21.39
2019-05-03T04:20:56.675Z,21.36
2019-05-03T04:21:56.659Z,21.32
2019-05-03T04:22:56.600Z,21.29
2019-05-03T04:23:57.597Z,21.42
2019-05-03T04:24:56.647Z,21.40
2019-05-03T04:25:56.982Z,21.32
2019-05-03T04:27:13.315Z,21.36
2019-05-03T04:27:57.614Z,21.27
2019-05-03T04:28:56.571Z,21.35
2019-05-03T04:29:56.967Z,21.27
2019-05-03T04:30:57.429Z,21.42
2019-05-03T04:31:56.718Z,21.35
2019-05-03T04:32:56.799Z,21.36
2019-05-03T04:33:56.539Z,21.36
2019-05-03T04:34:57.345Z,21.29
2019-05-03T04:35:56.783Z,21.37
2019-05-03T04:36:56.489Z,21.27
2019-05-03T04:37:56.587Z,21.32
2019-05-03T04:38:56.459Z,21.36
2019-05-03T04:39:56.428Z,21.36
2019-05-03T04:40:56.443Z,21.32
2019-05-03T04:41:57.436Z,21.42
2019-05-03T04:42:56.509Z,21.39
2019-05-03T04:43:57.173Z,21.33
2019-05-03T04:44:56.647Z,21.33
2019-05-03T04:45:57.200Z,21.35
2019-05-03T04:46:58.418Z,21.27
2019-05-03T04:47:56.530Z,21.35
2019-05-03T04:48:56.372Z,21.37
2019-05-03T04:49:56.803Z,21.36
2019-05-03T04:50:56.909Z,21.33
2019-05-03T04:51:56.278Z,21.37
2019-05-03T04:52:56.826Z,21.36
2019-05-03T04:53:56.397Z,21.33
2019-05-03T04:54:56.834Z,21.33
2019-05-03T04:55:56.322Z,21.37
2019-05-03T04:56:56.413Z,21.36
2019-05-03T04:57:56.766Z,21.37
2019-05-03T04:58:56.281Z,21.32
2019-05-03T04:59:56.874Z,21.37
2019-05-03T05:00:56.116Z,21.30
2019-05-03T05:01:56.220Z,21.32
2019-05-03T05:02:56.171Z,21.32
2019-05-03T05:03:57.030Z,21.36
2019-05-03T05:04:56.112Z,21.37
2019-05-03T05:05:59.570Z,21.40
2019-05-03T05:06:56.176Z,21.37
2019-05-03T05:07:56.175Z,21.39
2019-05-03T05:08:56.147Z,21.29
2019-05-03T05:09:56.518Z,21.39
2019-05-03T05:10:56.123Z,21.33
2019-05-03T05:11:56.283Z,21.33
2019-05-03T05:12:56.673Z,21.39
2019-05-03T05:13:56.187Z,21.39
2019-05-03T05:14:56.657Z,21.32
2019-05-03T05:15:56.013Z,21.30
2019-05-03T05:16:55.995Z,21.33
2019-05-03T05:17:56.453Z,21.30
2019-05-03T05:18:56.107Z,21.32
2019-05-03T05:19:56.014Z,21.33
2019-05-03T05:20:56.002Z,21.29
2019-05-03T05:21:55.992Z,21.32
2019-05-03T05:22:55.933Z,21.32
2019-05-03T05:23:56.334Z,21.32
2019-05-03T05:24:56.033Z,21.42
2019-05-03T05:25:58.457Z,21.36
2019-05-03T05:26:55.879Z,21.33
2019-05-03T05:27:57.205Z,21.36
2019-05-03T05:28:55.933Z,21.33
2019-05-03T05:29:56.319Z,21.36
2019-05-03T05:30:55.903Z,21.32
2019-05-03T05:31:55.863Z,21.32
2019-05-03T05:32:55.820Z,21.30
2019-05-03T05:33:55.819Z,21.32
2019-05-03T05:34:56.146Z,21.35
2019-05-03T05:35:59.892Z,21.32
2019-05-03T05:36:56.442Z,21.32
2019-05-03T05:37:55.799Z,21.32
2019-05-03T05:38:55.743Z,21.29
2019-05-03T05:39:55.783Z,21.33
2019-05-03T05:40:56.294Z,21.30
2019-05-03T05:41:58.336Z,21.30
2019-05-03T05:42:55.681Z,21.37
2019-05-03T05:43:55.588Z,21.30
2019-05-03T05:44:55.770Z,21.33
2019-05-03T05:45:58.961Z,21.42
2019-05-03T05:46:56.695Z,21.37
2019-05-03T05:47:57.037Z,21.32
2019-05-03T05:48:55.551Z,21.30
2019-05-03T05:49:55.636Z,21.35
2019-05-03T05:50:55.440Z,21.33
2019-05-03T05:51:56.091Z,21.29
2019-05-03T05:52:55.596Z,21.29
2019-05-03T05:53:58.792Z,21.21
2019-05-03T05:54:55.636Z,21.24
2019-05-03T05:55:56.221Z,21.32
2019-05-03T05:56:55.560Z,21.32
2019-05-03T05:58:02.998Z,21.27
2019-05-03T05:58:57.710Z,21.25
2019-05-03T05:59:56.158Z,21.21
2019-05-03T06:00:55.372Z,21.21
2019-05-03T06:01:55.635Z,21.21
2019-05-03T06:02:55.396Z,21.33
2019-05-03T06:03:55.392Z,21.21
2019-05-03T06:06:26.963Z,21.33
2019-05-03T06:08:52.490Z,21.21
2019-05-03T06:09:52.119Z,21.29
2019-05-03T06:10:52.202Z,21.17
2019-05-03T06:11:52.361Z,20.93
2019-05-03T06:12:51.344Z,20.85
2019-05-03T06:13:52.015Z,20.65
2019-05-03T06:14:51.122Z,20.59
2019-05-03T06:15:51.114Z,20.56
2019-05-03T06:16:51.238Z,20.47
2019-05-03T06:17:51.072Z,20.37
2019-05-03T06:18:51.536Z,20.25
2019-05-03T06:19:51.037Z,20.28
2019-05-03T06:20:52.077Z,20.36
2019-05-03T06:21:50.988Z,20.40
2019-05-03T06:22:51.496Z,20.31
2019-05-03T06:23:51.789Z,20.21
2019-05-03T06:24:51.008Z,20.10
2019-05-03T06:25:50.809Z,20.24
2019-05-03T06:26:50.954Z,20.29
2019-05-03T06:27:51.643Z,20.34
2019-05-03T06:28:51.299Z,20.37
2019-05-03T06:29:51.310Z,20.32
2019-05-03T06:30:50.875Z,20.14
2019-05-03T06:31:50.901Z,20.16
2019-05-03T06:32:50.848Z,20.13
2019-05-03T06:33:52.528Z,20.14
2019-05-03T06:34:50.921Z,20.11
2019-05-03T06:35:51.245Z,20.11
2019-05-03T06:36:51.531Z,20.16
2019-05-03T06:37:50.793Z,20.11
2019-05-03T06:38:51.784Z,20.19
2019-05-03T06:39:50.821Z,20.09
2019-05-03T06:40:50.678Z,20.14
2019-05-03T06:41:52.153Z,20.10
2019-05-03T06:42:54.521Z,20.19
2019-05-03T06:43:50.766Z,20.31
2019-05-03T06:44:51.467Z,20.26
2019-05-03T06:45:50.738Z,20.22
2019-05-03T06:46:50.700Z,20.37
2019-05-03T06:47:52.794Z,20.34
2019-05-03T06:48:50.649Z,20.32
2019-05-03T06:49:50.658Z,20.34
2019-05-03T06:50:51.042Z,20.31
2019-05-03T06:51:50.602Z,20.32
2019-05-03T06:52:50.694Z,20.37
2019-05-03T06:53:51.745Z,20.34
2019-05-03T06:54:51.003Z,20.34
2019-05-03T06:55:51.764Z,20.32
2019-05-03T06:56:50.562Z,20.31
2019-05-03T06:57:51.429Z,20.34
2019-05-03T06:58:50.603Z,20.34
2019-05-03T06:59:51.297Z,20.32
2019-05-03T07:00:50.595Z,20.32
2019-05-03T07:01:50.662Z,20.39
2019-05-03T07:02:51.282Z,20.36
2019-05-03T07:03:50.774Z,20.32
2019-05-03T07:04:51.750Z,20.36
2019-05-03T07:05:50.663Z,20.28
2019-05-03T07:06:50.635Z,20.40
2019-05-03T07:07:50.397Z,20.37
2019-05-03T07:08:50.502Z,20.34
2019-05-03T07:09:50.459Z,20.37
2019-05-03T07:10:50.376Z,20.34
2019-05-03T07:11:51.846Z,20.36
2019-05-03T07:12:50.402Z,20.32
2019-05-03T07:13:50.445Z,20.32
2019-05-03T07:16:07.359Z,20.28
2019-05-03T07:17:08.130Z,20.36
2019-05-03T07:18:07.143Z,20.34
2019-05-03T07:19:07.094Z,20.34
2019-05-03T07:20:07.021Z,20.32
2019-05-03T07:21:07.235Z,20.31
2019-05-03T07:22:07.056Z,20.36
2019-05-03T07:23:07.182Z,20.32
2019-05-03T07:24:07.040Z,20.41
2019-05-03T07:25:07.903Z,20.34
2019-05-03T07:26:07.091Z,20.32
2019-05-03T07:27:07.971Z,20.41
2019-05-03T07:28:08.281Z,20.37
2019-05-03T07:29:07.519Z,20.37
2019-05-03T07:30:06.846Z,20.34
2019-05-03T07:31:06.922Z,20.34
2019-05-03T07:32:07.740Z,20.36
2019-05-03T07:33:07.493Z,20.47
2019-05-03T07:34:18.205Z,20.40
2019-05-03T07:35:06.914Z,20.55
2019-05-03T07:36:15.425Z,20.41
2019-05-03T07:38:46.267Z,20.51
2019-05-03T07:39:47.838Z,20.52
2019-05-03T07:40:44.641Z,20.55
2019-05-03T07:41:46.444Z,20.48
2019-05-03T07:44:05.334Z,20.60
2019-05-03T07:45:11.090Z,20.51
2019-05-03T07:46:06.672Z,20.52
2019-05-03T07:46:59.579Z,20.67
2019-05-03T07:48:04.691Z,20.56
2019-05-03T07:48:59.717Z,20.55
2019-05-03T07:49:59.674Z,20.63
2019-05-03T07:50:59.994Z,20.58
2019-05-03T07:51:59.574Z,20.63
2019-05-03T07:52:59.358Z,20.66
2019-05-03T07:53:59.357Z,20.65
2019-05-03T07:54:59.360Z,20.75
2019-05-03T07:55:59.721Z,20.69
2019-05-03T07:56:59.356Z,20.69
2019-05-03T07:57:59.466Z,20.75
2019-05-03T07:59:02.975Z,20.69
2019-05-03T07:59:59.720Z,20.70
2019-05-03T08:01:06.080Z,20.74
2019-05-03T08:02:00.872Z,20.74
2019-05-03T08:02:59.350Z,20.75
2019-05-03T08:03:59.315Z,20.80
2019-05-03T08:04:59.319Z,20.70
2019-05-03T08:05:59.347Z,20.82
2019-05-03T08:06:59.549Z,20.72
2019-05-03T08:07:59.602Z,20.72
2019-05-03T08:08:59.161Z,20.70
2019-05-03T08:09:59.260Z,20.80
2019-05-03T08:10:59.126Z,20.82
2019-05-03T08:11:59.201Z,20.82
2019-05-03T08:12:59.107Z,20.84
2019-05-03T08:13:59.192Z,20.85
2019-05-03T08:14:59.121Z,20.78
2019-05-03T08:15:59.097Z,20.87
2019-05-03T08:16:59.062Z,20.78
2019-05-03T08:17:59.057Z,20.85
2019-05-03T08:18:59.045Z,20.87
2019-05-03T08:19:59.237Z,20.88
2019-05-03T08:20:59.056Z,20.87
2019-05-03T08:21:59.010Z,20.85
2019-05-03T08:22:59.173Z,20.87
2019-05-03T08:23:59.026Z,20.85
2019-05-03T08:24:58.970Z,20.95
2019-05-03T08:25:59.008Z,20.97
2019-05-03T08:27:00.344Z,20.96
2019-05-03T08:27:59.023Z,20.96
2019-05-03T08:29:12.660Z,20.99
2019-05-03T08:29:59.915Z,20.81
2019-05-03T08:30:59.214Z,20.92
2019-05-03T08:31:59.134Z,20.95
2019-05-03T08:33:00.492Z,20.93
2019-05-03T08:33:59.066Z,20.97
2019-05-03T08:34:59.078Z,20.92
2019-05-03T08:35:59.745Z,20.99
2019-05-03T08:37:00.421Z,20.96
2019-05-03T08:37:59.914Z,20.96
2019-05-03T08:38:59.008Z,20.96
2019-05-03T08:39:59.065Z,20.99
2019-05-03T08:40:59.054Z,21.02
2019-05-03T08:42:08.878Z,20.96
2019-05-03T08:42:58.835Z,20.99
2019-05-03T08:44:00.261Z,21.02
2019-05-03T08:44:58.865Z,20.93
2019-05-03T08:45:59.143Z,20.99
2019-05-03T08:46:59.721Z,20.96
2019-05-03T08:47:59.094Z,20.97
2019-05-03T08:48:59.124Z,20.97
2019-05-03T08:49:59.307Z,20.96
2019-05-03T08:50:58.908Z,21.11
2019-05-03T08:51:58.726Z,21.00
2019-05-03T08:52:58.795Z,21.09
2019-05-03T08:53:58.788Z,21.11
2019-05-03T08:54:58.647Z,21.03
2019-05-03T08:55:59.195Z,21.06
2019-05-03T08:56:58.747Z,21.11
2019-05-03T08:57:59.600Z,21.06
2019-05-03T08:58:59.218Z,21.12
2019-05-03T08:59:58.752Z,21.02
2019-05-03T09:00:58.880Z,21.11
2019-05-03T09:02:03.506Z,21.14
2019-05-03T09:02:59.566Z,21.07
2019-05-03T09:03:58.575Z,21.05
2019-05-03T09:04:58.719Z,21.02
2019-05-03T09:05:59.567Z,21.06
2019-05-03T09:06:58.509Z,21.09
2019-05-03T09:07:58.679Z,21.07
2019-05-03T09:08:58.623Z,21.07
2019-05-03T09:09:59.651Z,21.15
2019-05-03T09:10:58.560Z,21.11
2019-05-03T09:11:58.563Z,21.18
2019-05-03T09:12:58.448Z,21.14
2019-05-03T09:13:58.717Z,21.20
2019-05-03T09:14:59.362Z,21.17
2019-05-03T09:15:58.579Z,21.11
2019-05-03T09:16:58.401Z,21.17
2019-05-03T09:17:58.958Z,21.18
2019-05-03T09:18:59.811Z,21.12
2019-05-03T09:19:58.950Z,21.21
2019-05-03T09:20:58.942Z,21.24
2019-05-03T09:21:58.890Z,21.20
2019-05-03T09:22:58.338Z,21.18
2019-05-03T09:23:59.440Z,21.22
2019-05-03T09:24:58.393Z,21.20
2019-05-03T09:25:58.539Z,21.22
2019-05-03T09:26:58.476Z,21.18
2019-05-03T09:27:58.274Z,21.20
2019-05-03T09:28:58.374Z,21.22
2019-05-03T09:29:58.283Z,21.21
2019-05-03T09:30:58.556Z,21.21
2019-05-03T09:31:58.266Z,21.15
2019-05-03T09:32:58.237Z,21.20
2019-05-03T09:33:58.221Z,21.21
2019-05-03T09:34:58.200Z,21.25
2019-05-03T09:35:58.417Z,21.24
2019-05-03T09:36:58.790Z,21.24
2019-05-03T09:37:58.374Z,21.21
2019-05-03T09:38:58.252Z,21.25
2019-05-03T09:39:58.172Z,21.33
2019-05-03T09:40:58.978Z,21.30
2019-05-03T09:41:58.123Z,21.27
2019-05-03T09:42:58.384Z,21.29
2019-05-03T09:43:58.253Z,21.35
2019-05-03T09:44:58.585Z,21.30
2019-05-03T09:45:58.754Z,21.33
2019-05-03T09:46:59.293Z,21.32
2019-05-03T09:47:58.133Z,21.33
2019-05-03T09:49:10.224Z,21.29
2019-05-03T09:50:02.090Z,21.33
2019-05-03T09:50:58.108Z,21.32
2019-05-03T09:51:58.206Z,21.32
2019-05-03T09:52:58.045Z,21.33
2019-05-03T09:53:58.567Z,21.32
2019-05-03T09:54:57.992Z,21.30
2019-05-03T09:55:58.719Z,21.29
2019-05-03T09:56:58.739Z,21.36
2019-05-03T09:57:57.946Z,21.35
2019-05-03T09:58:58.097Z,21.33
2019-05-03T10:00:00.023Z,21.29
2019-05-03T10:00:58.138Z,21.39
2019-05-03T10:01:57.945Z,21.40
2019-05-03T10:02:58.003Z,21.35
2019-05-03T10:03:57.878Z,21.30
2019-05-03T10:04:57.911Z,21.37
2019-05-03T10:05:57.891Z,21.40
2019-05-03T10:06:57.999Z,21.32
2019-05-03T10:07:57.985Z,21.32
2019-05-03T10:08:57.817Z,21.42
2019-05-03T10:09:57.810Z,21.35
2019-05-03T10:10:58.164Z,21.36
2019-05-03T10:11:57.790Z,21.33
2019-05-03T10:12:57.775Z,21.36
2019-05-03T10:13:57.839Z,21.35
2019-05-03T10:14:57.800Z,21.36
2019-05-03T10:15:57.849Z,21.39
2019-05-03T10:16:57.782Z,21.32
2019-05-03T10:17:57.811Z,21.37
2019-05-03T10:18:57.771Z,21.33
2019-05-03T10:19:57.728Z,21.32
2019-05-03T10:20:57.698Z,21.37
2019-05-03T10:21:57.789Z,21.35
2019-05-03T10:22:57.866Z,21.37
2019-05-03T10:23:57.881Z,21.40
2019-05-03T10:24:57.740Z,21.45
2019-05-03T10:25:57.906Z,21.37
2019-05-03T10:26:57.647Z,21.36
2019-05-03T10:27:57.698Z,21.36
2019-05-03T10:28:57.663Z,21.33
2019-05-03T10:30:09.589Z,21.40
2019-05-03T10:30:59.156Z,21.40
2019-05-03T10:31:57.565Z,21.42
2019-05-03T10:32:57.557Z,21.35
2019-05-03T10:33:57.780Z,21.39
2019-05-03T10:34:57.809Z,21.37
2019-05-03T10:35:58.530Z,21.43
2019-05-03T10:36:58.460Z,21.40
2019-05-03T10:37:57.504Z,21.40
2019-05-03T10:38:57.575Z,21.39
2019-05-03T10:39:57.571Z,21.45
2019-05-03T10:40:57.639Z,21.45
2019-05-03T10:41:58.183Z,21.46
2019-05-03T10:42:58.534Z,21.43
2019-05-03T10:43:57.477Z,21.43
2019-05-03T10:44:57.418Z,21.42
2019-05-03T10:45:57.605Z,21.39
2019-05-03T10:46:57.575Z,21.50
2019-05-03T10:47:57.391Z,21.35
2019-05-03T10:48:57.494Z,21.37
2019-05-03T10:49:57.369Z,21.39
2019-05-03T10:50:57.369Z,21.46
2019-05-03T10:51:57.356Z,21.43
2019-05-03T10:52:57.779Z,21.45
2019-05-03T10:53:57.324Z,21.45
2019-05-03T10:54:57.349Z,21.46
2019-05-03T10:55:58.327Z,21.51
2019-05-03T10:56:57.294Z,21.48
2019-05-03T10:57:57.272Z,21.48
2019-05-03T10:58:57.265Z,21.50
2019-05-03T10:59:57.267Z,21.48
2019-05-03T11:00:57.391Z,21.52
2019-05-03T11:01:57.228Z,21.57
2019-05-03T11:02:57.219Z,21.55
2019-05-03T11:03:57.608Z,21.62
2019-05-03T11:04:57.316Z,21.55
2019-05-03T11:05:57.189Z,21.50
2019-05-03T11:06:57.238Z,21.54
2019-05-03T11:07:57.290Z,21.57
2019-05-03T11:08:57.165Z,21.51
2019-05-03T11:09:57.142Z,21.58
2019-05-03T11:10:57.157Z,21.57
2019-05-03T11:11:57.121Z,21.57
2019-05-03T11:12:57.380Z,21.57
2019-05-03T11:13:57.122Z,21.69
2019-05-03T11:14:57.089Z,21.60
2019-05-03T11:15:57.076Z,21.64
2019-05-03T11:16:57.065Z,21.70
2019-05-03T11:17:57.050Z,21.69
2019-05-03T11:18:57.157Z,21.57
2019-05-03T11:19:57.046Z,21.60
2019-05-03T11:20:57.402Z,21.73
2019-05-03T11:21:57.006Z,21.70
2019-05-03T11:22:56.995Z,21.60
2019-05-03T11:23:57.202Z,21.60
2019-05-03T11:24:57.299Z,21.72
2019-05-03T11:25:57.107Z,21.64
2019-05-03T11:26:59.917Z,21.70
2019-05-03T11:27:57.024Z,21.70
2019-05-03T11:29:00.474Z,21.57
2019-05-03T11:29:59.210Z,21.73
2019-05-03T11:31:02.054Z,21.67
2019-05-03T11:31:57.934Z,21.70
2019-05-03T11:32:57.459Z,21.64
2019-05-03T11:33:57.471Z,21.61
2019-05-03T11:34:57.054Z,21.62
2019-05-03T11:35:57.587Z,21.62
2019-05-03T11:36:57.735Z,21.70
2019-05-03T11:37:57.999Z,21.77
2019-05-03T11:38:57.413Z,21.72
2019-05-03T11:39:56.814Z,21.61
2019-05-03T11:40:57.390Z,21.77
2019-05-03T11:41:58.518Z,21.70
2019-05-03T11:42:58.552Z,21.69
2019-05-03T11:43:57.555Z,21.77
2019-05-03T11:44:56.883Z,21.72
2019-05-03T11:45:56.989Z,21.72
2019-05-03T11:46:56.809Z,21.70
2019-05-03T11:47:57.771Z,21.64
2019-05-03T11:48:58.025Z,21.62
2019-05-03T11:49:56.932Z,21.64
2019-05-03T11:50:57.276Z,21.66
2019-05-03T11:51:57.421Z,21.73
2019-05-03T11:52:57.100Z,21.75
2019-05-03T11:53:57.333Z,21.69
2019-05-03T11:54:58.532Z,21.69
2019-05-03T11:55:56.988Z,21.66
2019-05-03T11:56:56.903Z,21.67
2019-05-03T11:57:56.768Z,21.75
2019-05-03T11:58:57.220Z,21.58
2019-05-03T11:59:56.772Z,21.70
2019-05-03T12:01:11.945Z,21.67
2019-05-03T12:01:57.688Z,21.76
2019-05-03T12:02:56.820Z,21.73
2019-05-03T12:03:56.555Z,21.80
2019-05-03T12:04:56.538Z,21.80
2019-05-03T12:05:56.815Z,21.73
2019-05-03T12:06:56.688Z,21.77
2019-05-03T12:07:56.761Z,21.79
2019-05-03T12:08:56.493Z,21.79
2019-05-03T12:09:56.481Z,21.77
2019-05-03T12:11:01.123Z,21.75
2019-05-03T12:11:56.578Z,21.75
2019-05-03T12:12:56.685Z,21.73
2019-05-03T12:14:04.076Z,21.77
2019-05-03T12:14:57.456Z,21.77
2019-05-03T12:15:59.811Z,21.80
2019-05-03T12:17:17.288Z,21.76
2019-05-03T12:17:59.447Z,21.77
2019-05-03T12:18:56.663Z,21.80
2019-05-03T12:19:58.083Z,21.76
2019-05-03T12:20:58.078Z,21.76
2019-05-03T12:21:56.948Z,21.75
2019-05-03T12:22:57.511Z,21.77
2019-05-03T12:23:57.528Z,21.79
2019-05-03T12:24:57.031Z,21.80
2019-05-03T12:25:56.906Z,21.72
2019-05-03T12:26:56.443Z,21.79
2019-05-03T12:27:56.378Z,21.73
2019-05-03T12:28:56.428Z,21.67
2019-05-03T12:29:57.314Z,21.73
2019-05-03T12:30:57.893Z,21.83
2019-05-03T12:31:56.315Z,21.70
2019-05-03T12:32:56.733Z,21.79
2019-05-03T12:33:56.345Z,21.80
2019-05-03T12:34:56.384Z,21.76
2019-05-03T12:36:05.362Z,21.80
2019-05-03T12:36:56.481Z,21.75
2019-05-03T12:37:57.599Z,21.79
2019-05-03T12:38:57.493Z,21.80
2019-05-03T12:39:56.372Z,21.75
2019-05-03T12:40:56.305Z,21.67
2019-05-03T12:41:57.368Z,21.69
2019-05-03T12:42:56.375Z,21.77
2019-05-03T12:43:57.140Z,21.73
2019-05-03T12:44:56.349Z,21.61
2019-05-03T12:45:56.385Z,21.67
2019-05-03T12:46:56.235Z,21.67
2019-05-03T12:47:56.421Z,21.64
2019-05-03T12:48:57.134Z,21.69
2019-05-03T12:49:56.345Z,21.66
2019-05-03T12:50:57.225Z,21.67
2019-05-03T12:51:56.118Z,21.67
2019-05-03T12:52:56.143Z,21.72
2019-05-03T12:53:56.365Z,21.62
2019-05-03T12:54:56.239Z,21.70
2019-05-03T12:55:56.286Z,21.61
2019-05-03T12:56:56.166Z,21.60
2019-05-03T12:57:56.967Z,21.57
2019-05-03T12:58:55.961Z,21.48
2019-05-03T12:59:56.062Z,21.67